createdAt,value
2023-04-11T00:00:21.267Z,100.73
2023-04-11T00:02:48.616Z,89.87
2023-04-11T00:05:16.217Z,102.87
2023-04-11T00:07:43.461Z,98.40
2023-04-11T00:10:10.984Z,84.47
2023-04-11T00:12:38.188Z,71.80
2023-04-11T00:15:05.917Z,62.63
2023-04-11T00:17:33.516Z,58.33
2023-04-11T00:20:07.634Z,68.37
2023-04-11T00:22:36.082Z,60.27
2023-04-11T00:25:03.208Z,54.10
2023-04-11T00:27:30.413Z,54.53
2023-04-11T00:29:58.589Z,67.07
2023-04-11T00:32:25.733Z,57.03
2023-04-11T00:34:53.132Z,57.50
2023-04-11T00:37:23.299Z,52.77
2023-04-11T00:39:51.094Z,45.37
2023-04-11T00:42:18.394Z,48.40
2023-04-11T00:44:46.135Z,46.30
2023-04-11T00:47:14.057Z,52.63
2023-04-11T00:49:41.587Z,49.60
2023-04-11T00:52:09.616Z,48.20
2023-04-11T00:54:36.824Z,50.33
2023-04-11T00:57:07.161Z,51.63
2023-04-11T00:59:34.462Z,49.90
2023-04-11T01:02:02.224Z,48.27
2023-04-11T01:04:32.908Z,50.97
2023-04-11T01:07:06.463Z,52.37
2023-04-11T01:09:35.653Z,45.33
2023-04-11T01:12:04.997Z,44.17
2023-04-11T01:14:32.174Z,54.63
2023-04-11T01:17:02.439Z,54.87
2023-04-11T01:19:31.532Z,54.50
2023-04-11T01:21:59.733Z,58.93
2023-04-11T01:24:28.302Z,53.50
2023-04-11T01:26:57.134Z,49.00
2023-04-11T01:29:24.363Z,51.67
2023-04-11T01:31:52.337Z,50.40
2023-04-11T01:34:21.207Z,51.40
2023-04-11T01:36:48.442Z,60.17
2023-04-11T01:39:15.746Z,50.93
2023-04-11T01:41:44.041Z,58.37
2023-04-11T01:44:11.478Z,57.23
2023-04-11T01:46:38.974Z,54.50
2023-04-11T01:49:09.948Z,50.87
2023-04-11T01:51:37.291Z,111.97
2023-04-11T01:54:05.177Z,72.10
2023-04-11T01:56:32.359Z,69.23
2023-04-11T01:58:59.609Z,65.73
2023-04-11T02:01:27.182Z,70.40
2023-04-11T02:03:54.540Z,53.90
2023-04-11T02:06:22.004Z,53.20
2023-04-11T02:08:49.187Z,54.30
2023-04-11T02:11:16.312Z,49.00
2023-04-11T02:13:43.816Z,49.47
2023-04-11T02:16:15.562Z,45.33
2023-04-11T02:18:44.584Z,47.97
2023-04-11T02:21:12.415Z,49.23
2023-04-11T02:23:39.590Z,45.90
2023-04-11T02:26:06.907Z,48.27
2023-04-11T02:28:34.417Z,70.00
2023-04-11T02:31:02.642Z,74.70
2023-04-11T02:33:29.995Z,60.77
2023-04-11T02:35:57.275Z,58.47
2023-04-11T02:38:24.488Z,56.97
2023-04-11T02:40:51.690Z,58.83
2023-04-11T02:43:19.224Z,68.50
2023-04-11T02:45:52.361Z,57.23
2023-04-11T02:48:21.459Z,62.13
2023-04-11T02:50:48.598Z,74.07
2023-04-11T02:53:16.657Z,57.87
2023-04-11T02:55:44.284Z,63.93
2023-04-11T02:58:18.226Z,59.23
2023-04-11T03:00:46.085Z,62.43
2023-04-11T03:03:13.849Z,65.40
2023-04-11T03:05:41.065Z,62.10
2023-04-11T03:08:09.369Z,58.83
2023-04-11T03:10:36.539Z,65.13
2023-04-11T03:13:03.706Z,69.07
2023-04-11T03:15:32.619Z,61.83
2023-04-11T03:17:59.804Z,66.20
2023-04-11T03:20:27.091Z,71.90
2023-04-11T03:22:54.189Z,69.27
2023-04-11T03:25:21.644Z,70.70
2023-04-11T03:27:49.179Z,91.67
2023-04-11T03:30:16.400Z,67.27
2023-04-11T03:32:46.303Z,73.00
2023-04-11T03:35:15.013Z,81.43
2023-04-11T03:37:42.139Z,143.97
2023-04-11T03:40:10.091Z,100.27
2023-04-11T03:42:37.699Z,77.83
2023-04-11T03:45:05.489Z,64.83
2023-04-11T03:47:32.670Z,68.57
2023-04-11T03:50:01.435Z,63.37
2023-04-11T03:52:28.948Z,61.53
2023-04-11T03:54:58.565Z,60.07
2023-04-11T03:57:28.602Z,76.93
2023-04-11T03:59:59.784Z,77.60
2023-04-11T04:02:27.039Z,68.43
2023-04-11T04:04:59.151Z,64.53
2023-04-11T04:07:27.577Z,74.30
2023-04-11T04:09:55.502Z,73.27
2023-04-11T04:12:22.796Z,74.60
2023-04-11T04:14:50.084Z,80.87
2023-04-11T04:17:17.473Z,74.90
2023-04-11T04:19:45.022Z,75.77
2023-04-11T04:22:13.600Z,71.80
2023-04-11T04:24:46.804Z,79.97
2023-04-11T04:27:14.076Z,67.47
2023-04-11T04:29:48.730Z,68.83
2023-04-11T04:32:23.408Z,68.33
2023-04-11T04:34:55.449Z,69.13
2023-04-11T04:37:24.878Z,65.18
2023-04-11T04:39:56.676Z,73.57
2023-04-11T04:42:29.979Z,98.87
2023-04-11T04:44:58.133Z,92.00
2023-04-11T04:47:29.879Z,85.10
2023-04-11T04:49:57.769Z,77.00
2023-04-11T04:52:26.762Z,91.40
2023-04-11T04:54:58.228Z,74.30
2023-04-11T04:57:29.239Z,82.70
2023-04-11T04:59:57.136Z,83.30
2023-04-11T05:02:28.259Z,80.47
2023-04-11T05:04:55.766Z,82.33
2023-04-11T05:07:23.759Z,78.37
2023-04-11T05:09:51.058Z,76.20
2023-04-11T05:12:20.426Z,74.50
2023-04-11T05:14:50.912Z,78.70
2023-04-11T05:17:18.572Z,84.40
2023-04-11T05:19:46.001Z,93.30
2023-04-11T05:22:13.171Z,91.90
2023-04-11T05:24:40.600Z,109.87
2023-04-11T05:27:07.834Z,98.70
2023-04-11T05:29:35.075Z,82.27
2023-04-11T05:32:02.189Z,98.30
2023-04-11T05:34:33.196Z,86.23
2023-04-11T05:37:01.564Z,101.07
2023-04-11T05:39:28.789Z,86.10
2023-04-11T05:41:57.042Z,77.20
2023-04-11T05:44:24.341Z,85.10
2023-04-11T05:46:51.585Z,98.87
2023-04-11T05:49:18.743Z,84.47
2023-04-11T05:51:47.496Z,80.37
2023-04-11T05:54:31.984Z,102.10
2023-04-11T05:56:59.259Z,79.37
2023-04-11T05:59:27.737Z,92.37
2023-04-11T06:01:56.879Z,81.83
2023-04-11T06:04:24.364Z,87.87
2023-04-11T06:06:52.721Z,89.60
2023-04-11T06:09:20.654Z,86.07
2023-04-11T06:11:48.263Z,89.77
2023-04-11T06:14:15.378Z,87.47
2023-04-11T06:16:42.785Z,93.97
2023-04-11T06:19:10.099Z,98.90
2023-04-11T06:21:37.521Z,95.40
2023-04-11T06:24:11.750Z,86.63
2023-04-11T06:26:39.037Z,76.17
2023-04-11T06:29:07.370Z,73.17
2023-04-11T06:31:34.595Z,69.57
2023-04-11T06:34:02.477Z,69.43
2023-04-11T06:36:30.518Z,73.97
2023-04-11T06:38:57.733Z,77.23
2023-04-11T06:41:32.613Z,72.35
2023-04-11T06:44:00.049Z,67.57
2023-04-11T06:46:27.489Z,61.03
2023-04-11T06:48:54.755Z,62.53
2023-04-11T06:51:22.076Z,65.83
2023-04-11T06:53:49.196Z,60.90
2023-04-11T06:56:16.335Z,61.37
2023-04-11T06:58:43.657Z,57.57
2023-04-11T07:01:11.473Z,58.20
2023-04-11T07:03:38.989Z,60.53
2023-04-11T07:06:07.692Z,61.80
2023-04-11T07:08:35.014Z,43.00
2023-04-11T07:11:02.332Z,44.77
2023-04-11T07:13:30.086Z,46.57
2023-04-11T07:16:00.178Z,40.60
2023-04-11T07:18:27.738Z,38.60
2023-04-11T07:20:54.992Z,46.70
2023-04-11T07:23:23.837Z,42.57
2023-04-11T07:25:51.250Z,40.97
2023-04-11T07:28:18.560Z,50.07
2023-04-11T07:30:46.734Z,41.17
2023-04-11T07:33:14.229Z,41.90
2023-04-11T07:35:41.689Z,44.07
2023-04-11T07:38:10.590Z,37.37
2023-04-11T07:40:38.002Z,48.80
2023-04-11T07:43:05.170Z,50.97
2023-04-11T07:45:33.696Z,54.30
2023-04-11T07:48:01.041Z,40.40
2023-04-11T07:50:28.369Z,41.57
2023-04-11T07:52:57.061Z,43.13
2023-04-11T07:55:24.358Z,46.87
2023-04-11T07:57:51.967Z,45.63
2023-04-11T08:00:21.137Z,62.77
2023-04-11T08:02:48.828Z,53.27
2023-04-11T08:05:16.301Z,50.93
2023-04-11T08:07:43.676Z,51.97
2023-04-11T08:10:11.088Z,46.83
2023-04-11T08:12:38.258Z,39.93
2023-04-11T08:15:05.862Z,50.83
2023-04-11T08:17:38.472Z,41.93
2023-04-11T08:20:09.043Z,45.67
2023-04-11T08:22:36.472Z,41.57
2023-04-11T08:25:04.035Z,45.67
2023-04-11T08:27:31.248Z,44.57
2023-04-11T08:29:59.470Z,43.47
2023-04-11T08:32:26.707Z,53.30
2023-04-11T08:34:54.049Z,53.00
2023-04-11T08:37:22.126Z,45.33
2023-04-11T08:39:49.356Z,45.60
2023-04-11T08:42:23.706Z,44.70
2023-04-11T08:45:04.353Z,44.20
2023-04-11T08:47:35.488Z,43.47
2023-04-11T08:50:02.690Z,44.00
2023-04-11T08:52:32.473Z,43.70
2023-04-11T08:55:00.111Z,40.00
2023-04-11T08:57:31.820Z,40.07
2023-04-11T09:00:09.922Z,41.77
2023-04-11T09:02:56.164Z,39.63
2023-04-11T09:05:33.032Z,39.63
2023-04-11T09:08:06.883Z,40.07
2023-04-11T09:10:35.440Z,61.93
2023-04-11T09:13:26.889Z,86.07
2023-04-11T09:16:14.844Z,42.97
2023-04-11T09:18:43.983Z,68.63
2023-04-11T09:21:13.986Z,45.43
2023-04-11T09:23:41.336Z,58.80
2023-04-11T09:26:10.705Z,50.53
2023-04-11T09:28:54.603Z,31.10
2023-04-11T09:31:38.534Z,34.00
2023-04-11T09:34:05.709Z,32.77
2023-04-11T09:36:33.008Z,33.50
2023-04-11T09:39:02.400Z,33.07
2023-04-11T09:41:32.607Z,34.00
2023-04-11T09:44:00.835Z,42.33
2023-04-11T09:46:28.445Z,33.33
2023-04-11T09:48:56.398Z,33.07
2023-04-11T09:51:35.696Z,29.93
2023-04-11T09:54:04.328Z,30.77
2023-04-11T09:56:34.794Z,35.03
2023-04-11T09:59:04.374Z,52.50
2023-04-11T10:01:31.791Z,50.73
2023-04-11T10:04:01.225Z,32.20
2023-04-11T10:06:34.508Z,34.70
2023-04-11T10:09:08.630Z,27.87
2023-04-11T10:11:36.917Z,36.40
2023-04-11T10:14:04.352Z,26.70
2023-04-11T10:16:34.614Z,29.63
2023-04-11T10:19:02.255Z,28.57
2023-04-11T10:21:36.570Z,36.27
2023-04-11T10:24:17.206Z,24.87
2023-04-11T10:26:55.330Z,28.67
2023-04-11T10:29:31.632Z,24.13
2023-04-11T10:32:16.613Z,22.50
2023-04-11T10:34:50.282Z,23.00
2023-04-11T10:37:18.505Z,22.50
2023-04-11T10:39:51.714Z,22.27
2023-04-11T10:42:32.898Z,20.00
2023-04-11T10:45:31.142Z,18.67
2023-04-11T10:48:13.236Z,20.13
2023-04-11T10:50:44.075Z,16.83
2023-04-11T10:53:36.678Z,16.83
2023-04-11T10:56:04.102Z,15.33
2023-04-11T10:58:39.933Z,14.43
2023-04-11T11:01:31.451Z,15.40
2023-04-11T11:04:05.117Z,15.20
2023-04-11T11:06:46.084Z,13.37
2023-04-11T11:09:23.628Z,13.30
2023-04-11T11:12:17.620Z,12.50
2023-04-11T11:14:47.370Z,14.20
2023-04-11T11:17:16.547Z,10.77
2023-04-11T11:19:45.318Z,10.37
2023-04-11T11:22:25.984Z,9.50
2023-04-11T11:24:54.344Z,8.63
2023-04-11T11:27:25.355Z,10.23
2023-04-11T11:29:53.647Z,10.00
2023-04-11T11:32:25.089Z,9.07
2023-04-11T11:34:53.623Z,10.83
2023-04-11T11:37:21.893Z,10.53
2023-04-11T11:39:50.324Z,9.57
2023-04-11T11:42:17.930Z,10.43
2023-04-11T11:44:45.334Z,10.67
2023-04-11T11:47:16.940Z,11.67
2023-04-11T11:49:51.307Z,12.20
2023-04-11T11:52:35.469Z,11.40
2023-04-11T11:57:53.918Z,14.37
2023-04-11T12:00:29.066Z,14.70
2023-04-11T12:02:57.524Z,11.40
2023-04-11T12:05:32.996Z,13.33
2023-04-11T12:08:05.452Z,12.47
2023-04-11T12:10:44.250Z,13.70
2023-04-11T12:13:23.820Z,11.27
2023-04-11T12:15:55.977Z,15.13
2023-04-11T12:18:24.655Z,12.17
2023-04-11T12:20:58.500Z,13.20
2023-04-11T12:23:25.649Z,15.37
2023-04-11T12:25:53.023Z,12.67
2023-04-11T12:28:20.521Z,10.77
2023-04-11T12:30:47.987Z,12.67
2023-04-11T12:33:15.226Z,11.80
2023-04-11T12:35:42.553Z,14.90
2023-04-11T12:38:10.888Z,14.90
2023-04-11T12:40:40.668Z,14.30
2023-04-11T12:43:07.938Z,14.37
2023-04-11T12:45:36.332Z,14.27
2023-04-11T12:48:03.815Z,13.13
2023-04-11T12:50:31.516Z,15.43
2023-04-11T12:52:58.682Z,15.37
2023-04-11T12:55:26.009Z,15.33
2023-04-11T12:57:53.280Z,22.87
2023-04-11T13:00:20.638Z,19.73
2023-04-11T13:02:49.054Z,18.40
2023-04-11T13:05:17.261Z,18.93
2023-04-11T13:07:45.702Z,19.27
2023-04-11T13:10:14.395Z,18.17
2023-04-11T13:12:44.691Z,18.03
2023-04-11T13:15:15.034Z,17.27
2023-04-11T13:17:43.128Z,21.07
2023-04-11T13:20:11.842Z,21.53
2023-04-11T13:22:42.758Z,26.83
2023-04-11T13:25:11.251Z,19.00
2023-04-11T13:27:39.995Z,20.33
2023-04-11T13:30:08.869Z,22.07
2023-04-11T13:32:36.390Z,22.23
2023-04-11T13:35:04.359Z,20.73
2023-04-11T13:37:31.852Z,21.00
2023-04-11T13:39:59.008Z,37.73
2023-04-11T13:42:26.215Z,13.77
2023-04-11T13:44:53.701Z,29.50
2023-04-11T13:47:21.048Z,11.90
2023-04-11T13:49:48.466Z,11.10
2023-04-11T13:52:15.758Z,4.60
2023-04-11T13:54:43.347Z,7.67
2023-04-11T13:57:10.574Z,12.43
2023-04-11T13:59:37.758Z,7.07
2023-04-11T14:02:05.040Z,9.50
2023-04-11T14:04:32.434Z,7.17
2023-04-11T14:06:59.843Z,9.20
2023-04-11T14:09:27.215Z,5.60
2023-04-11T14:11:54.360Z,3.13
2023-04-11T14:14:22.189Z,7.07
2023-04-11T14:16:50.629Z,9.80
2023-04-11T14:19:17.935Z,5.07
2023-04-11T14:21:45.128Z,5.30
2023-04-11T14:24:12.800Z,7.43
2023-04-11T14:26:40.020Z,7.80
2023-04-11T14:29:07.703Z,6.07
2023-04-11T14:31:36.367Z,5.90
2023-04-11T14:34:03.554Z,6.87
2023-04-11T14:36:32.391Z,9.83
2023-04-11T14:38:59.654Z,8.17
2023-04-11T14:41:26.823Z,4.80
2023-04-11T14:43:54.356Z,5.57
2023-04-11T14:46:22.325Z,5.00
2023-04-11T14:48:49.670Z,7.43
2023-04-11T14:51:17.065Z,5.77
2023-04-11T14:53:45.156Z,4.27
2023-04-11T14:56:12.472Z,8.73
2023-04-11T14:58:40.181Z,10.60
2023-04-11T15:01:07.964Z,7.50
2023-04-11T15:03:35.513Z,7.80
2023-04-11T15:06:03.270Z,6.57
2023-04-11T15:08:31.053Z,10.43
2023-04-11T15:10:58.453Z,5.47
2023-04-11T15:13:27.403Z,5.13
2023-04-11T15:15:55.056Z,4.90
2023-04-11T15:18:29.035Z,8.30
2023-04-11T15:20:58.061Z,8.43
2023-04-11T15:23:26.409Z,7.33
2023-04-11T15:26:03.025Z,6.90
2023-04-11T15:28:36.885Z,6.83
2023-04-11T15:31:06.434Z,8.53
2023-04-11T15:33:34.253Z,8.37
2023-04-11T15:36:01.707Z,9.70
2023-04-11T15:38:29.232Z,6.40
2023-04-11T15:40:58.763Z,7.73
2023-04-11T15:43:26.655Z,7.43
2023-04-11T15:45:54.408Z,6.77
2023-04-11T15:48:25.080Z,7.77
2023-04-11T15:50:52.374Z,8.07
2023-04-11T15:53:19.689Z,9.00
2023-04-11T15:55:47.895Z,30.03
2023-04-11T15:58:15.586Z,84.57
2023-04-11T16:00:44.254Z,12.30
2023-04-11T16:03:12.072Z,9.53
2023-04-11T16:05:41.891Z,9.00
2023-04-11T16:08:09.539Z,52.20
2023-04-11T16:10:36.929Z,47.20
2023-04-11T16:13:04.219Z,11.60
2023-04-11T16:15:35.717Z,13.80
2023-04-11T16:18:07.243Z,10.43
2023-04-11T16:20:35.319Z,10.30
2023-04-11T16:23:02.612Z,8.87
2023-04-11T16:25:29.856Z,6.93
2023-04-11T16:27:57.657Z,5.63
2023-04-11T16:30:26.470Z,7.00
2023-04-11T16:32:54.525Z,4.33
2023-04-11T16:35:21.887Z,5.07
2023-04-11T16:37:49.251Z,5.67
2023-04-11T16:40:16.995Z,4.53
2023-04-11T16:42:45.731Z,4.40
2023-04-11T16:45:13.354Z,6.13
2023-04-11T16:47:41.296Z,6.30
2023-04-11T16:50:09.014Z,6.30
2023-04-11T16:52:41.747Z,15.43
2023-04-11T16:55:09.760Z,10.93
2023-04-11T16:57:38.049Z,8.30
2023-04-11T17:00:11.892Z,6.40
2023-04-11T17:02:39.403Z,6.33
2023-04-11T17:05:07.820Z,6.87
2023-04-11T17:07:37.172Z,6.53
2023-04-11T17:10:07.703Z,7.47
2023-04-11T17:12:35.206Z,5.73
2023-04-11T17:15:02.678Z,4.77
2023-04-11T17:17:30.134Z,3.93
2023-04-11T17:19:57.536Z,3.80
2023-04-11T17:22:25.338Z,3.73
2023-04-11T17:24:52.530Z,4.00
2023-04-11T17:27:23.827Z,3.67
2023-04-11T17:29:51.463Z,3.47
2023-04-11T17:32:19.386Z,3.67
2023-04-11T17:34:48.830Z,3.10
2023-04-11T17:37:16.909Z,4.50
2023-04-11T17:39:44.994Z,4.50
2023-04-11T17:42:14.375Z,2.83
2023-04-11T17:44:41.627Z,3.57
2023-04-11T17:47:12.489Z,3.63
2023-04-11T17:49:39.714Z,3.40
2023-04-11T17:52:07.005Z,2.50
2023-04-11T17:54:34.668Z,3.27
2023-04-11T17:57:01.925Z,4.13
2023-04-11T17:59:29.101Z,2.50
2023-04-11T18:01:57.157Z,3.40
2023-04-11T18:04:24.700Z,4.03
2023-04-11T18:06:51.928Z,4.70
2023-04-11T18:09:19.143Z,3.33
2023-04-11T18:11:46.739Z,2.87
2023-04-11T18:14:13.998Z,2.90
2023-04-11T18:16:41.434Z,4.30
2023-04-11T18:19:08.719Z,3.20
2023-04-11T18:21:36.221Z,3.20
2023-04-11T18:24:04.408Z,4.60
2023-04-11T18:26:31.864Z,4.80
2023-04-11T18:29:01.034Z,4.07
2023-04-11T18:31:29.484Z,3.70
2023-04-11T18:33:57.257Z,5.37
2023-04-11T18:36:25.457Z,5.90
2023-04-11T18:38:53.498Z,6.77
2023-04-11T18:41:21.115Z,6.87
2023-04-11T18:43:48.595Z,7.83
2023-04-11T18:48:43.295Z,3.70
2023-04-11T18:51:10.720Z,8.90
2023-04-11T18:53:41.176Z,7.90
2023-04-11T18:56:08.674Z,5.27
2023-04-11T18:58:40.124Z,5.60
2023-04-11T19:01:15.496Z,6.43
2023-04-11T19:03:44.710Z,5.70
2023-04-11T19:06:13.198Z,6.20
2023-04-11T19:08:41.160Z,5.70
2023-04-11T19:11:08.436Z,9.07
2023-04-11T19:13:35.975Z,7.67
2023-04-11T19:16:03.304Z,4.70
2023-04-11T19:18:30.833Z,5.53
2023-04-11T19:20:58.920Z,6.57
2023-04-11T19:23:26.707Z,6.93
2023-04-11T19:25:55.175Z,4.70
2023-04-11T19:28:22.817Z,5.80
2023-04-11T19:30:50.126Z,5.93
2023-04-11T19:33:18.926Z,7.53
2023-04-11T19:35:46.824Z,6.33
2023-04-11T19:38:13.953Z,8.27
2023-04-11T19:40:41.253Z,6.70
2023-04-11T19:43:08.504Z,6.17
2023-04-11T19:45:36.070Z,9.50
2023-04-11T19:48:03.443Z,8.50
2023-04-11T19:50:31.197Z,7.40
2023-04-11T19:52:59.828Z,5.93
2023-04-11T19:55:27.497Z,7.77
2023-04-11T19:57:54.731Z,6.40
2023-04-11T20:00:22.034Z,5.03
2023-04-11T20:02:49.311Z,5.23
2023-04-11T20:05:18.791Z,4.80
2023-04-11T20:07:47.077Z,3.73
2023-04-11T20:10:15.345Z,5.73
2023-04-11T20:12:42.775Z,4.60
2023-04-11T20:15:10.984Z,3.80
2023-04-11T20:17:38.284Z,4.50
2023-04-11T20:20:06.376Z,5.20
2023-04-11T20:22:33.783Z,2.53
2023-04-11T20:25:01.306Z,3.43
2023-04-11T20:27:28.466Z,2.50
2023-04-11T20:29:56.939Z,3.07
2023-04-11T20:32:24.200Z,3.10
2023-04-11T20:34:51.503Z,3.00
2023-04-11T20:37:19.732Z,4.23
2023-04-11T20:39:46.996Z,2.13
2023-04-11T20:42:14.106Z,2.43
2023-04-11T20:44:42.836Z,1.70
2023-04-11T20:47:10.293Z,1.80
2023-04-11T20:49:41.388Z,3.77
2023-04-11T20:52:08.582Z,3.73
2023-04-11T20:54:36.038Z,3.20
2023-04-11T20:57:03.390Z,2.57
2023-04-11T20:59:32.316Z,1.67
2023-04-11T21:01:59.558Z,2.67
2023-04-11T21:04:28.501Z,2.10
2023-04-11T21:06:57.016Z,2.57
2023-04-11T21:09:24.184Z,2.53
2023-04-11T21:11:51.701Z,3.33
2023-04-11T21:14:18.881Z,1.63
2023-04-11T21:16:46.232Z,2.00
2023-04-11T21:19:13.774Z,2.20
2023-04-11T21:21:41.009Z,2.73
2023-04-11T21:24:09.594Z,3.20
2023-04-11T21:26:36.975Z,2.07
2023-04-11T21:29:04.095Z,4.20
2023-04-11T21:31:31.309Z,4.77
2023-04-11T21:33:58.987Z,4.00
2023-04-11T21:36:26.789Z,3.23
2023-04-11T21:38:54.289Z,2.87
2023-04-11T21:41:21.383Z,5.03
2023-04-11T21:43:48.707Z,2.60
2023-04-11T21:46:16.439Z,3.20
2023-04-11T21:48:43.655Z,2.27
2023-04-11T21:51:11.822Z,6.83
2023-04-11T21:53:39.007Z,5.27
2023-04-11T21:56:07.846Z,3.07
2023-04-11T21:58:35.207Z,4.93
2023-04-11T22:01:03.098Z,4.33
2023-04-11T22:03:31.133Z,3.10
2023-04-11T22:05:58.991Z,2.93
2023-04-11T22:08:29.424Z,2.97
2023-04-11T22:10:57.026Z,5.03
2023-04-11T22:13:24.388Z,3.63
2023-04-11T22:15:58.772Z,5.63
2023-04-11T22:18:27.321Z,3.70
2023-04-11T22:20:55.022Z,2.20
2023-04-11T22:23:22.212Z,5.97
2023-04-11T22:25:57.933Z,6.47
2023-04-11T22:28:26.472Z,4.73
2023-04-11T22:30:54.238Z,4.40
2023-04-11T22:33:21.905Z,2.90
2023-04-11T22:35:49.096Z,3.30
2023-04-11T22:38:17.083Z,2.93
2023-04-11T22:40:44.333Z,4.30
2023-04-11T22:43:11.860Z,6.77
2023-04-11T22:45:39.447Z,6.20
2023-04-11T22:48:06.618Z,3.97
2023-04-11T22:50:39.151Z,4.07
2023-04-11T22:53:09.603Z,4.63
2023-04-11T22:55:36.942Z,3.23
2023-04-11T22:58:04.611Z,5.87
2023-04-11T23:00:38.690Z,3.70
2023-04-11T23:03:07.566Z,6.13
2023-04-11T23:05:39.983Z,5.37
2023-04-11T23:08:08.236Z,4.87
2023-04-11T23:10:35.668Z,6.13
2023-04-11T23:13:03.817Z,4.03
2023-04-11T23:15:31.960Z,5.40
2023-04-11T23:17:59.203Z,5.57
2023-04-11T23:20:26.452Z,6.23
2023-04-11T23:22:53.683Z,7.47
2023-04-11T23:25:21.278Z,8.27
2023-04-11T23:27:48.669Z,5.17
2023-04-11T23:30:17.799Z,7.23
2023-04-11T23:32:45.053Z,6.13
2023-04-11T23:35:13.493Z,5.73
2023-04-11T23:37:41.112Z,7.87
2023-04-11T23:40:14.143Z,8.83
2023-04-11T23:42:42.397Z,6.77
2023-04-11T23:45:15.209Z,7.47
2023-04-11T23:47:42.639Z,10.90
2023-04-11T23:50:10.921Z,8.67
2023-04-11T23:52:38.106Z,9.77
2023-04-11T23:55:05.933Z,6.30
2023-04-11T23:57:33.091Z,7.43
